Agra, Kansas
Current Conditions -  °F | °C
As of 1:53 AM on Monday 22 Dec 2014 (Local Time) from KHLC Reporting Station
Scattered Clouds Scattered Clouds  
Wind Chill: 34°   Ceiling: Unl
Heat Index: 38°   Visibility: 10mi
Dew Point: 34°   Wind: 5mph
Humidity: 86%   Direction: 230°SW
Pressure: 29.52"   Gusts: NA
Location:  39.76°N, 99.12°W
Report Text: KHLC 220753Z AUTO 23004KT 10SM SCT100 03/01 A2952 RMK AO2 SLP002 T00330011
Loading
Personal Weather Stations






























Interactive Weather Map New forecast layout! Learn more

10-Day Weather Forecast

Advertisements
Track Severe Weather on mobile